METAR Data
IDs: Format: Raw Decoded Include TAF

Data at: 0021 UTC 25 Apr 2019

METAR for:KDBQ (Dubuque Rgnl, IA, US)
Text:KDBQ 242353Z 18009KT 10SM CLR 14/05 A2985 RMK AO2 SLP113 T01440050 10161 20144 56007
Temperature: 14.4°C ( 58°F)
Dewpoint: 5.0°C ( 41°F) [RH = 53%]
Pressure (altimeter):29.85 inches Hg (1010.9 mb) [Sea level pressure: 1011.3 mb]
Winds:from the S (180 degrees) at 10 MPH (9 knots; 4.6 m/s)
Visibility:10 or more sm (16+ km)
Ceiling:at least 12,000 feet AGL
Clouds:sky clear below 12,000 feet AGL